Time;durP1;ratioP1;P1;durP2;ratioP2;P2;SDS_P1;SDS_P2;PMS_P1;PMS_P2;Temp;Humidity;BMP_temperature;BMP_pressure;BME280_temperature;BME280_humidity;BME280_pressure;Samples;Min_cycle;Max_cycle;Signal;HPM_P1;HPM_P2
2024/01/20 00:01:58;;;;;;;;;50.75;42.00;;;;;;;;5089074;27;28642;-83
2024/01/20 00:04:42;;;;;;;;;57.00;43.50;;;;;;;;5084079;27;28751;-82
2024/01/20 00:07:08;;;;;;;;;57.25;42.25;;;;;;;;5085299;27;29291;-83
2024/01/20 00:09:43;;;;;;;;;49.50;40.50;;;;;;;;5086530;27;28382;-83
2024/01/20 00:12:09;;;;;;;;;52.25;41.00;;;;;;;;5083892;27;29110;-81
2024/01/20 00:14:34;;;;;;;;;50.50;40.00;;;;;;;;5082088;27;29097;-80
2024/01/20 00:16:59;;;;;;;;;54.00;40.75;;;;;;;;5077205;27;28776;-82
2024/01/20 00:19:25;;;;;;;;;47.00;38.25;;;;;;;;5078579;27;29195;-83
2024/01/20 00:21:50;;;;;;;;;47.50;39.00;;;;;;;;5094934;27;29310;-84
2024/01/20 00:24:15;;;;;;;;;55.00;43.75;;;;;;;;5092160;27;28863;-83
2024/01/20 00:26:40;;;;;;;;;47.00;39.33;;;;;;;;5093062;27;28943;-84
2024/01/20 00:29:06;;;;;;;;;46.33;35.67;;;;;;;;5086320;27;28536;-82
2024/01/20 00:31:31;;;;;;;;;52.00;40.00;;;;;;;;5084857;27;28737;-82
2024/01/20 00:33:56;;;;;;;;;49.75;39.75;;;;;;;;5084270;27;28566;-83
2024/01/20 00:36:21;;;;;;;;;51.75;41.00;;;;;;;;5097144;27;28654;-83
2024/01/20 00:38:47;;;;;;;;;53.00;39.75;;;;;;;;5086828;27;28635;-81
2024/01/20 00:41:12;;;;;;;;;47.75;40.25;;;;;;;;5086393;27;28120;-83
2024/01/20 00:43:40;;;;;;;;;50.25;39.25;;;;;;;;5100128;27;28517;-82
2024/01/20 00:46:06;;;;;;;;;50.25;37.75;;;;;;;;5088534;27;28480;-83
2024/01/20 00:48:31;;;;;;;;;58.00;46.00;;;;;;;;5083468;27;29964;-84
2024/01/20 00:50:56;;;;;;;;;64.00;49.00;;;;;;;;5086665;27;28769;-82
2024/01/20 00:53:25;;;;;;;;;60.50;46.50;;;;;;;;5075284;27;28897;-80
2024/01/20 00:55:50;;;;;;;;;65.75;50.00;;;;;;;;5087346;27;28768;-82
2024/01/20 00:58:15;;;;;;;;;62.00;46.50;;;;;;;;5088590;27;28766;-82
2024/01/20 01:00:41;;;;;;;;;65.25;50.00;;;;;;;;5078948;27;28158;-81
2024/01/20 01:03:07;;;;;;;;;57.00;46.00;;;;;;;;5084668;27;28530;-82
2024/01/20 01:05:33;;;;;;;;;60.00;46.50;;;;;;;;5071496;27;29838;-82
2024/01/20 01:07:58;;;;;;;;;55.50;43.50;;;;;;;;5083538;27;30128;-82
2024/01/20 01:10:26;;;;;;;;;47.25;39.50;;;;;;;;5093155;27;28562;-83
2024/01/20 01:12:52;;;;;;;;;56.25;43.00;;;;;;;;5088636;27;28883;-83
2024/01/20 01:15:17;;;;;;;;;54.75;43.75;;;;;;;;5077945;27;29228;-83
2024/01/20 01:17:42;;;;;;;;;59.75;45.00;;;;;;;;5083254;28;29784;-82
2024/01/20 01:20:09;;;;;;;;;43.50;37.00;;;;;;;;5083043;27;28499;-85
2024/01/20 01:22:34;;;;;;;;;47.75;37.00;;;;;;;;5086944;27;28871;-81
2024/01/20 01:24:59;;;;;;;;;35.67;33.00;;;;;;;;5084979;27;30659;-82
2024/01/20 01:27:25;;;;;;;;;44.50;36.25;;;;;;;;5090284;27;28804;-84
2024/01/20 01:29:50;;;;;;;;;47.50;34.50;;;;;;;;5089966;27;29142;-83
2024/01/20 01:32:15;;;;;;;;;45.50;35.75;;;;;;;;5086960;27;28511;-84
2024/01/20 01:34:40;;;;;;;;;45.25;37.00;;;;;;;;5088201;27;28827;-84
2024/01/20 01:37:05;;;;;;;;;49.50;40.00;;;;;;;;5097439;27;29852;-81
2024/01/20 01:39:31;;;;;;;;;41.25;34.00;;;;;;;;5081580;27;29694;-83
2024/01/20 01:41:56;;;;;;;;;51.00;40.50;;;;;;;;5084030;27;28718;-82
2024/01/20 01:44:21;;;;;;;;;50.25;37.00;;;;;;;;5081626;27;28737;-81
2024/01/20 01:46:46;;;;;;;;;47.50;37.50;;;;;;;;5082922;27;28823;-83
2024/01/20 01:49:12;;;;;;;;;48.75;39.00;;;;;;;;5077937;27;28549;-84
2024/01/20 01:51:38;;;;;;;;;46.25;37.75;;;;;;;;5079241;27;28548;-83
2024/01/20 01:54:04;;;;;;;;;43.75;37.00;;;;;;;;5082196;27;28731;-82
2024/01/20 01:56:30;;;;;;;;;40.00;34.25;;;;;;;;5085977;27;31020;-82
2024/01/20 01:58:56;;;;;;;;;44.00;35.50;;;;;;;;5079708;28;28843;-83
2024/01/20 02:01:21;;;;;;;;;41.00;33.75;;;;;;;;5083956;27;28719;-81
2024/01/20 02:03:46;;;;;;;;;39.00;33.25;;;;;;;;5079250;27;28480;-81
2024/01/20 02:06:11;;;;;;;;;33.50;30.50;;;;;;;;5081338;27;28550;-80
2024/01/20 02:08:39;;;;;;;;;36.00;29.75;;;;;;;;5094839;27;28500;-82
2024/01/20 02:11:04;;;;;;;;;48.75;37.00;;;;;;;;5099122;27;28566;-81
2024/01/20 02:13:30;;;;;;;;;44.25;34.75;;;;;;;;5095483;27;29049;-81
2024/01/20 02:15:56;;;;;;;;;37.00;32.00;;;;;;;;5091863;27;29645;-81
2024/01/20 02:18:21;;;;;;;;;36.25;31.75;;;;;;;;5094843;27;28638;-81
2024/01/20 02:20:46;;;;;;;;;34.25;29.50;;;;;;;;5093328;27;28449;-80
2024/01/20 02:23:12;;;;;;;;;48.50;37.50;;;;;;;;5084874;27;29367;-82
2024/01/20 02:25:37;;;;;;;;;39.75;33.00;;;;;;;;5085088;27;30274;-81
2024/01/20 02:28:02;;;;;;;;;41.75;33.50;;;;;;;;5086254;27;29461;-82
2024/01/20 02:30:28;;;;;;;;;41.25;34.00;;;;;;;;5091089;27;28432;-82
2024/01/20 02:32:53;;;;;;;;;37.25;30.50;;;;;;;;5092373;27;28263;-82
2024/01/20 02:35:18;;;;;;;;;45.25;35.50;;;;;;;;5108404;27;28770;-81
2024/01/20 02:37:44;;;;;;;;;47.00;34.00;;;;;;;;5092081;27;28638;-83
2024/01/20 02:40:10;;;;;;;;;29.25;29.25;;;;;;;;5092448;27;28473;-81
2024/01/20 02:42:35;;;;;;;;;44.00;34.25;;;;;;;;5087555;27;28872;-84
2024/01/20 02:45:00;;;;;;;;;48.25;36.00;;;;;;;;5078611;27;28441;-83
2024/01/20 02:47:26;;;;;;;;;48.00;35.00;;;;;;;;5087846;27;28523;-82
2024/01/20 02:49:51;;;;;;;;;41.75;35.00;;;;;;;;5085585;27;28675;-81
2024/01/20 02:52:16;;;;;;;;;45.00;37.25;;;;;;;;5089301;27;28903;-81
2024/01/20 02:54:41;;;;;;;;;44.00;35.25;;;;;;;;5087025;27;29338;-83
2024/01/20 02:57:06;;;;;;;;;40.25;34.50;;;;;;;;5085726;27;28763;-83
2024/01/20 02:59:32;;;;;;;;;40.75;33.75;;;;;;;;5096777;27;28434;-82
2024/01/20 03:01:58;;;;;;;;;37.00;30.50;;;;;;;;5089764;27;28902;-83
2024/01/20 03:04:23;;;;;;;;;45.25;36.25;;;;;;;;5083098;27;28610;-84
2024/01/20 03:06:49;;;;;;;;;38.00;30.25;;;;;;;;5078979;27;28985;-84
2024/01/20 03:09:14;;;;;;;;;41.50;34.00;;;;;;;;5094184;27;28439;-84
2024/01/20 03:11:42;;;;;;;;;42.75;36.75;;;;;;;;5090395;27;29018;-84
2024/01/20 03:14:09;;;;;;;;;44.50;38.25;;;;;;;;5090472;27;29351;-82
2024/01/20 03:16:34;;;;;;;;;44.25;36.75;;;;;;;;5093279;27;29515;-83
2024/01/20 03:18:59;;;;;;;;;36.50;31.25;;;;;;;;5088732;27;28520;-83
2024/01/20 03:21:25;;;;;;;;;46.50;35.00;;;;;;;;5078156;27;28861;-84
2024/01/20 03:23:53;;;;;;;;;44.50;35.75;;;;;;;;5086135;27;28595;-81
2024/01/20 03:26:19;;;;;;;;;42.75;36.25;;;;;;;;5088392;27;28681;-82
2024/01/20 03:28:44;;;;;;;;;39.50;34.00;;;;;;;;5092077;27;28826;-83
2024/01/20 03:31:09;;;;;;;;;36.50;33.25;;;;;;;;5085509;27;28896;-82
2024/01/20 03:33:35;;;;;;;;;34.50;31.25;;;;;;;;5090458;27;30456;-81
2024/01/20 03:36:00;;;;;;;;;43.00;35.25;;;;;;;;5096339;27;28867;-83
2024/01/20 03:38:25;;;;;;;;;48.75;36.75;;;;;;;;5082761;27;28915;-82
2024/01/20 03:40:51;;;;;;;;;34.50;30.00;;;;;;;;5089663;27;29346;-82
2024/01/20 03:43:16;;;;;;;;;39.00;33.00;;;;;;;;5087375;27;28534;-80
2024/01/20 03:45:43;;;;;;;;;44.50;34.25;;;;;;;;5085385;27;28787;-81
2024/01/20 03:48:08;;;;;;;;;42.25;33.50;;;;;;;;5082912;27;28569;-83
2024/01/20 03:50:34;;;;;;;;;43.75;34.50;;;;;;;;5092369;27;28553;-83
2024/01/20 03:53:02;;;;;;;;;31.75;30.25;;;;;;;;5085827;27;28645;-85
2024/01/20 03:55:27;;;;;;;;;47.50;35.00;;;;;;;;5084143;27;28637;-83
2024/01/20 03:57:53;;;;;;;;;31.00;28.67;;;;;;;;5084832;27;29208;-83
2024/01/20 04:00:18;;;;;;;;;47.00;35.50;;;;;;;;5083181;27;29318;-84
2024/01/20 04:02:43;;;;;;;;;42.00;35.00;;;;;;;;5087553;27;30118;-82
2024/01/20 04:05:09;;;;;;;;;37.25;34.25;;;;;;;;5084678;27;28973;-84
2024/01/20 04:07:35;;;;;;;;;44.50;36.50;;;;;;;;5083377;27;28438;-84
2024/01/20 04:10:00;;;;;;;;;47.75;36.25;;;;;;;;5080242;27;29100;-83
2024/01/20 04:12:26;;;;;;;;;31.50;25.00;;;;;;;;5079023;27;28734;-83
2024/01/20 04:14:51;;;;;;;;;;;;;;;;;;5093648;27;28641;-82
2024/01/20 04:17:16;;;;;;;;;49.00;37.50;;;;;;;;5092917;27;28733;-83
2024/01/20 04:19:41;;;;;;;;;47.50;35.75;;;;;;;;5095018;27;29501;-83
2024/01/20 04:22:07;;;;;;;;;35.00;33.00;;;;;;;;5094048;27;28929;-84
2024/01/20 04:24:32;;;;;;;;;33.00;31.50;;;;;;;;5088771;27;28944;-83
2024/01/20 04:26:57;;;;;;;;;45.50;37.00;;;;;;;;5090153;27;28590;-83
2024/01/20 04:29:23;;;;;;;;;40.00;33.75;;;;;;;;5090466;27;29265;-83
2024/01/20 04:31:48;;;;;;;;;45.33;32.33;;;;;;;;5092483;27;28733;-83
2024/01/20 04:34:13;;;;;;;;;38.67;30.33;;;;;;;;5087247;27;29418;-85
2024/01/20 04:36:38;;;;;;;;;41.00;32.25;;;;;;;;5087617;27;28141;-83
2024/01/20 04:39:04;;;;;;;;;37.25;33.00;;;;;;;;5095459;27;30315;-85
2024/01/20 04:41:29;;;;;;;;;43.00;34.33;;;;;;;;5089645;27;28701;-82
2024/01/20 04:43:54;;;;;;;;;32.50;26.50;;;;;;;;5089241;27;29723;-82
2024/01/20 04:46:20;;;;;;;;;36.50;32.00;;;;;;;;5089969;27;28496;-83
2024/01/20 04:48:45;;;;;;;;;29.00;29.00;;;;;;;;5079700;27;29505;-83
2024/01/20 04:51:10;;;;;;;;;;;;;;;;;;5090179;27;28804;-81
2024/01/20 04:53:36;;;;;;;;;27.00;27.00;;;;;;;;5092243;27;28619;-81
2024/01/20 04:56:03;;;;;;;;;47.00;23.00;;;;;;;;5092008;27;29020;-83
2024/01/20 04:58:28;;;;;;;;;38.50;27.50;;;;;;;;5085821;27;29069;-82
2024/01/20 05:00:53;;;;;;;;;;;;;;;;;;5077347;27;29663;-82
2024/01/20 05:03:18;;;;;;;;;;;;;;;;;;5083340;27;28386;-82
2024/01/20 05:05:44;;;;;;;;;30.50;30.00;;;;;;;;5093950;27;28494;-81
2024/01/20 05:08:09;;;;;;;;;39.00;28.00;;;;;;;;5088564;27;28516;-81
2024/01/20 05:10:34;;;;;;;;;;;;;;;;;;5086911;27;28444;-83
2024/01/20 05:12:59;;;;;;;;;37.00;28.33;;;;;;;;5082790;27;28435;-82
2024/01/20 05:15:25;;;;;;;;;26.50;26.50;;;;;;;;5081757;27;28630;-83
2024/01/20 05:17:50;;;;;;;;;31.00;26.00;;;;;;;;5091274;27;29457;-81
2024/01/20 05:20:15;;;;;;;;;53.50;31.00;;;;;;;;5083061;27;28745;-81
2024/01/20 05:22:42;;;;;;;;;;;;;;;;;;5073694;27;28816;-81
2024/01/20 05:25:07;;;;;;;;;26.75;26.00;;;;;;;;5070137;27;28992;-83
2024/01/20 05:27:32;;;;;;;;;31.67;27.67;;;;;;;;5081015;27;32249;-83
2024/01/20 05:29:58;;;;;;;;;34.00;32.00;;;;;;;;5081664;27;29632;-82
2024/01/20 05:32:23;;;;;;;;;34.00;29.50;;;;;;;;5082977;27;28805;-83
2024/01/20 05:34:48;;;;;;;;;19.00;19.00;;;;;;;;5081608;27;28535;-84
2024/01/20 05:37:14;;;;;;;;;42.00;33.00;;;;;;;;5078310;27;29349;-83
2024/01/20 05:39:39;;;;;;;;;42.00;28.67;;;;;;;;5071727;27;29701;-79
2024/01/20 05:42:05;;;;;;;;;45.50;31.50;;;;;;;;5085169;27;32134;-82
2024/01/20 05:44:30;;;;;;;;;32.67;26.67;;;;;;;;5071186;27;29185;-82
2024/01/20 05:46:55;;;;;;;;;38.00;27.00;;;;;;;;5087335;27;28488;-82
2024/01/20 05:49:20;;;;;;;;;43.00;34.50;;;;;;;;5080510;27;28657;-83
2024/01/20 05:51:46;;;;;;;;;37.25;29.25;;;;;;;;5084937;27;28879;-83
2024/01/20 05:54:11;;;;;;;;;39.33;31.00;;;;;;;;5090069;27;28522;-82
2024/01/20 05:56:36;;;;;;;;;30.00;19.00;;;;;;;;5090825;27;30359;-82
2024/01/20 05:59:02;;;;;;;;;15.00;15.00;;;;;;;;5086576;27;29228;-83
2024/01/20 06:01:27;;;;;;;;;31.50;29.00;;;;;;;;5084312;28;29259;-84
2024/01/20 06:03:53;;;;;;;;;36.25;26.25;;;;;;;;5081890;28;28442;-82
2024/01/20 06:06:18;;;;;;;;;40.75;31.50;;;;;;;;5074579;28;28779;-82
2024/01/20 06:08:43;;;;;;;;;36.50;29.50;;;;;;;;5087513;27;29623;-85
2024/01/20 06:11:09;;;;;;;;;35.00;30.00;;;;;;;;5082004;27;28587;-85
2024/01/20 06:13:34;;;;;;;;;43.50;33.00;;;;;;;;5076710;27;28762;-83
2024/01/20 06:15:59;;;;;;;;;37.50;31.00;;;;;;;;5085001;28;28487;-85
2024/01/20 06:18:28;;;;;;;;;40.25;31.75;;;;;;;;5082728;28;29764;-85
2024/01/20 06:20:54;;;;;;;;;41.75;32.75;;;;;;;;5095641;27;28649;-83
2024/01/20 06:23:19;;;;;;;;;23.50;16.00;;;;;;;;5103592;27;28768;-84
2024/01/20 06:25:44;;;;;;;;;43.00;33.75;;;;;;;;5084701;27;28580;-84
2024/01/20 06:28:10;;;;;;;;;41.50;34.25;;;;;;;;5091501;27;29291;-81
2024/01/20 06:30:35;;;;;;;;;42.75;34.50;;;;;;;;5091293;27;28706;-82
2024/01/20 06:33:00;;;;;;;;;39.25;34.00;;;;;;;;5088433;27;28743;-83
2024/01/20 06:35:26;;;;;;;;;43.00;31.25;;;;;;;;5092916;27;29130;-83
2024/01/20 06:37:51;;;;;;;;;33.75;32.00;;;;;;;;5094926;27;29380;-84
2024/01/20 06:40:16;;;;;;;;;41.75;34.00;;;;;;;;5097775;27;28426;-84
2024/01/20 06:42:42;;;;;;;;;41.50;32.75;;;;;;;;5091654;27;28405;-84
2024/01/20 06:45:07;;;;;;;;;37.25;31.75;;;;;;;;5085232;27;29005;-83
2024/01/20 06:47:33;;;;;;;;;44.25;34.00;;;;;;;;5090950;27;30737;-83
2024/01/20 06:49:58;;;;;;;;;45.25;33.50;;;;;;;;5094993;27;28518;-82
2024/01/20 06:52:23;;;;;;;;;49.00;35.00;;;;;;;;5090680;27;28484;-84
2024/01/20 06:54:49;;;;;;;;;45.50;34.25;;;;;;;;5086815;28;29157;-84
2024/01/20 06:57:14;;;;;;;;;40.75;32.75;;;;;;;;5094359;27;29414;-83
2024/01/20 06:59:39;;;;;;;;;38.50;32.50;;;;;;;;5102488;27;29455;-84
2024/01/20 07:02:05;;;;;;;;;43.75;36.00;;;;;;;;5088030;27;28638;-84
2024/01/20 07:04:31;;;;;;;;;39.00;29.75;;;;;;;;5102120;27;29265;-84
2024/01/20 07:06:56;;;;;;;;;42.25;35.50;;;;;;;;5095402;27;28761;-84
2024/01/20 07:09:21;;;;;;;;;42.00;33.50;;;;;;;;5108450;27;29496;-83
2024/01/20 07:11:47;;;;;;;;;37.00;30.50;;;;;;;;5086777;27;28846;-82
2024/01/20 07:14:12;;;;;;;;;46.00;33.50;;;;;;;;5090137;27;28445;-85
2024/01/20 07:16:37;;;;;;;;;33.00;29.25;;;;;;;;5108524;27;28590;-81
2024/01/20 07:19:03;;;;;;;;;42.25;33.75;;;;;;;;5099178;27;28463;-84
2024/01/20 07:21:28;;;;;;;;;44.25;34.75;;;;;;;;5103955;27;28003;-82
2024/01/20 07:23:53;;;;;;;;;43.75;34.50;;;;;;;;5108731;27;29727;-81
2024/01/20 07:26:21;;;;;;;;;38.00;31.75;;;;;;;;5102457;27;29304;-84
2024/01/20 07:28:46;;;;;;;;;41.75;33.00;;;;;;;;5088217;27;28484;-80
2024/01/20 07:31:12;;;;;;;;;42.50;33.00;;;;;;;;5090229;27;28524;-80
2024/01/20 07:33:38;;;;;;;;;40.75;31.00;;;;;;;;5086984;27;28822;-83
2024/01/20 07:36:04;;;;;;;;;42.25;32.00;;;;;;;;5087089;27;28466;-81
2024/01/20 07:38:29;;;;;;;;;37.25;34.25;;;;;;;;5090497;27;28559;-81
2024/01/20 07:40:55;;;;;;;;;41.50;34.25;;;;;;;;5101543;27;28819;-82
2024/01/20 07:43:21;;;;;;;;;39.75;33.00;;;;;;;;5095267;27;28787;-83
2024/01/20 07:45:46;;;;;;;;;37.75;31.25;;;;;;;;5087442;27;28546;-82
2024/01/20 07:48:12;;;;;;;;;34.50;30.00;;;;;;;;5094905;27;28468;-80
2024/01/20 07:50:37;;;;;;;;;48.75;36.75;;;;;;;;5102263;27;28569;-81
2024/01/20 07:53:03;;;;;;;;;42.50;33.00;;;;;;;;5080973;27;30860;-81
2024/01/20 07:55:28;;;;;;;;;42.00;34.00;;;;;;;;5089688;27;28048;-82
2024/01/20 07:57:54;;;;;;;;;39.75;32.00;;;;;;;;5098028;27;28681;-82
2024/01/20 08:00:19;;;;;;;;;28.00;28.00;;;;;;;;5082740;27;28624;-82
2024/01/20 08:02:45;;;;;;;;;50.25;34.25;;;;;;;;5080602;28;29170;-80
2024/01/20 08:05:10;;;;;;;;;39.50;33.50;;;;;;;;5073671;27;28914;-80
2024/01/20 08:07:35;;;;;;;;;46.75;36.25;;;;;;;;5081235;28;27972;-81
2024/01/20 08:10:01;;;;;;;;;47.00;33.00;;;;;;;;5085140;27;28540;-79
2024/01/20 08:12:26;;;;;;;;;42.50;33.00;;;;;;;;5084669;27;28696;-80
2024/01/20 08:14:52;;;;;;;;;41.75;34.00;;;;;;;;5082276;28;29694;-80
2024/01/20 08:17:17;;;;;;;;;50.50;39.75;;;;;;;;5085737;27;28847;-83
2024/01/20 08:19:45;;;;;;;;;47.75;37.25;;;;;;;;5089322;27;28536;-86
2024/01/20 08:22:12;;;;;;;;;43.50;36.25;;;;;;;;5097514;27;29413;-85
2024/01/20 08:24:37;;;;;;;;;46.25;37.50;;;;;;;;5092267;27;30104;-83
2024/01/20 08:27:03;;;;;;;;;47.25;37.00;;;;;;;;5087090;27;28604;-79
2024/01/20 08:29:28;;;;;;;;;50.25;38.25;;;;;;;;5092587;27;28712;-81
2024/01/20 08:31:53;;;;;;;;;51.00;39.00;;;;;;;;5087378;27;29496;-80
2024/01/20 08:34:18;;;;;;;;;45.50;38.00;;;;;;;;5092054;27;28872;-79
2024/01/20 08:36:44;;;;;;;;;49.50;37.75;;;;;;;;5090804;27;28593;-80
2024/01/20 08:39:09;;;;;;;;;48.25;36.50;;;;;;;;5082505;27;28572;-81
2024/01/20 08:41:34;;;;;;;;;50.75;37.00;;;;;;;;5083941;27;29308;-80
2024/01/20 08:43:59;;;;;;;;;34.50;31.00;;;;;;;;5088848;27;28643;-81
2024/01/20 08:46:25;;;;;;;;;47.00;34.00;;;;;;;;5084614;27;28504;-80
2024/01/20 08:48:50;;;;;;;;;50.25;37.75;;;;;;;;5100078;27;29893;-80
2024/01/20 08:51:16;;;;;;;;;51.00;38.50;;;;;;;;5101089;27;29832;-81
2024/01/20 08:53:41;;;;;;;;;45.25;36.50;;;;;;;;5086796;27;29363;-81
2024/01/20 08:56:06;;;;;;;;;49.75;39.75;;;;;;;;5091810;27;28527;-81
2024/01/20 08:58:32;;;;;;;;;52.00;40.75;;;;;;;;5083774;27;28849;-80
2024/01/20 09:00:57;;;;;;;;;64.25;48.50;;;;;;;;5090193;27;29864;-81
2024/01/20 09:03:23;;;;;;;;;44.75;35.50;;;;;;;;5093422;27;30085;-81
2024/01/20 09:05:48;;;;;;;;;50.00;39.50;;;;;;;;5084042;27;28844;-81
2024/01/20 09:08:16;;;;;;;;;50.25;40.00;;;;;;;;5097064;27;28514;-86
2024/01/20 09:10:41;;;;;;;;;54.75;42.75;;;;;;;;5085798;28;28719;-80
2024/01/20 09:13:08;;;;;;;;;56.25;42.75;;;;;;;;5084860;27;28631;-81
2024/01/20 09:15:34;;;;;;;;;55.00;41.75;;;;;;;;5082115;28;28842;-79
2024/01/20 09:17:59;;;;;;;;;49.25;41.00;;;;;;;;5082570;27;28530;-79
2024/01/20 09:20:24;;;;;;;;;47.75;38.75;;;;;;;;5086128;27;28748;-80
2024/01/20 09:22:49;;;;;;;;;54.00;40.00;;;;;;;;5092628;27;29274;-80
2024/01/20 09:25:16;;;;;;;;;43.75;37.75;;;;;;;;5090477;27;28584;-79
2024/01/20 09:27:41;;;;;;;;;47.75;40.25;;;;;;;;5090383;27;28557;-80
2024/01/20 09:30:07;;;;;;;;;50.25;37.50;;;;;;;;5092184;27;28716;-81
2024/01/20 09:32:33;;;;;;;;;53.00;42.00;;;;;;;;5095746;27;28766;-82
2024/01/20 09:34:59;;;;;;;;;39.25;33.75;;;;;;;;5089331;27;28592;-81
2024/01/20 09:37:28;;;;;;;;;50.67;41.00;;;;;;;;5083530;27;29654;-86
2024/01/20 09:39:57;;;;;;;;;48.33;38.67;;;;;;;;5083691;27;29672;-88
2024/01/20 09:42:22;;;;;;;;;50.67;38.67;;;;;;;;5079090;27;29857;-82
2024/01/20 09:44:48;;;;;;;;;44.33;36.33;;;;;;;;5084885;27;28577;-80
2024/01/20 09:47:15;;;;;;;;;50.33;39.67;;;;;;;;5089324;27;28566;-88
2024/01/20 09:49:40;;;;;;;;;49.67;38.00;;;;;;;;5089266;27;29241;-87
2024/01/20 09:52:12;;;;;;;;;53.33;41.33;;;;;;;;5097012;27;28200;-87
2024/01/20 09:54:57;;;;;;;;;46.00;37.00;;;;;;;;5097126;27;27793;-86
2024/01/20 09:57:23;;;;;;;;;45.00;37.67;;;;;;;;5087975;27;28804;-86
2024/01/20 09:59:49;;;;;;;;;39.33;31.67;;;;;;;;5085729;28;29884;-86
2024/01/20 10:02:15;;;;;;;;;48.00;36.00;;;;;;;;5086906;27;29599;-84
2024/01/20 10:04:42;;;;;;;;;38.67;33.00;;;;;;;;5084923;28;28591;-84
2024/01/20 10:07:07;;;;;;;;;55.50;43.75;;;;;;;;5081957;27;28952;-84
2024/01/20 10:09:32;;;;;;;;;47.67;37.67;;;;;;;;5086492;27;29865;-86
2024/01/20 10:11:59;;;;;;;;;40.00;33.67;;;;;;;;5083107;28;29784;-86
2024/01/20 10:14:24;;;;;;;;;36.00;32.67;;;;;;;;5080356;27;28461;-86
2024/01/20 10:16:49;;;;;;;;;43.00;35.33;;;;;;;;5069309;28;28500;-84
2024/01/20 10:19:15;;;;;;;;;34.00;31.67;;;;;;;;5088898;27;28226;-83
2024/01/20 10:21:40;;;;;;;;;44.67;37.00;;;;;;;;5089087;27;29974;-83
2024/01/20 10:24:06;;;;;;;;;45.33;36.00;;;;;;;;5082333;27;29898;-83
2024/01/20 10:26:39;;;;;;;;;48.67;40.00;;;;;;;;5096092;27;28821;-83
2024/01/20 10:29:04;;;;;;;;;46.00;36.33;;;;;;;;5092349;27;30012;-83
2024/01/20 10:31:31;;;;;;;;;50.00;38.67;;;;;;;;5085347;27;29291;-82
2024/01/20 10:33:56;;;;;;;;;43.67;34.67;;;;;;;;5085872;27;29626;-82
2024/01/20 10:36:22;;;;;;;;;40.00;34.33;;;;;;;;5101752;27;28797;-82
2024/01/20 10:38:49;;;;;;;;;41.33;34.00;;;;;;;;5092856;27;29598;-83
2024/01/20 10:41:16;;;;;;;;;45.67;34.00;;;;;;;;5102478;27;28581;-85
2024/01/20 10:43:47;;;;;;;;;35.00;30.33;;;;;;;;5091332;27;28473;-82
2024/01/20 10:46:21;;;;;;;;;31.50;29.00;;;;;;;;5087032;27;28629;-83
2024/01/20 10:48:47;;;;;;;;;30.67;27.67;;;;;;;;5085952;27;29967;-83
2024/01/20 10:51:14;;;;;;;;;27.33;26.33;;;;;;;;5091810;27;29033;-82
2024/01/20 10:53:40;;;;;;;;;28.67;27.67;;;;;;;;5086937;27;29466;-83
2024/01/20 10:56:07;;;;;;;;;30.67;27.33;;;;;;;;5085864;27;28013;-83
2024/01/20 10:58:41;;;;;;;;;28.00;26.67;;;;;;;;5084865;27;30114;-84
2024/01/20 11:01:10;;;;;;;;;35.00;29.67;;;;;;;;5091633;27;28524;-82
2024/01/20 11:03:35;;;;;;;;;33.67;28.67;;;;;;;;5085532;27;28802;-83
2024/01/20 11:06:00;;;;;;;;;35.67;33.33;;;;;;;;5088793;27;28825;-81
2024/01/20 11:08:26;;;;;;;;;32.33;27.33;;;;;;;;5092505;27;30540;-83
2024/01/20 11:10:51;;;;;;;;;37.67;32.00;;;;;;;;5095099;27;28140;-83
2024/01/20 11:13:17;;;;;;;;;35.67;30.33;;;;;;;;5082011;27;28512;-84
2024/01/20 11:15:49;;;;;;;;;35.67;30.67;;;;;;;;5104353;27;28472;-83
2024/01/20 11:18:15;;;;;;;;;32.33;28.33;;;;;;;;5093104;27;29024;-84
2024/01/20 11:20:40;;;;;;;;;32.00;25.33;;;;;;;;5088190;27;28982;-83
2024/01/20 11:23:09;;;;;;;;;37.33;29.33;;;;;;;;5091670;27;28875;-83
2024/01/20 11:25:35;;;;;;;;;31.00;27.00;;;;;;;;5105948;27;28504;-82
2024/01/20 11:28:00;;;;;;;;;30.67;26.67;;;;;;;;5107602;27;27992;-83
2024/01/20 11:30:34;;;;;;;;;33.00;28.33;;;;;;;;5093813;27;28591;-78
2024/01/20 11:32:59;;;;;;;;;30.00;23.33;;;;;;;;5093770;27;29267;-77
2024/01/20 11:35:25;;;;;;;;;34.67;30.33;;;;;;;;5083755;27;28441;-78
2024/01/20 11:37:53;;;;;;;;;37.33;31.67;;;;;;;;5091897;27;28757;-78
2024/01/20 11:40:18;;;;;;;;;34.00;31.67;;;;;;;;5090627;27;28594;-78
2024/01/20 11:42:44;;;;;;;;;35.00;28.67;;;;;;;;5092993;27;28849;-77
2024/01/20 11:45:09;;;;;;;;;42.33;32.67;;;;;;;;5102925;27;28939;-78
2024/01/20 11:47:34;;;;;;;;;35.67;32.00;;;;;;;;5091107;27;28856;-76
2024/01/20 11:50:01;;;;;;;;;36.00;32.33;;;;;;;;5066513;28;28651;-77
2024/01/20 11:52:26;;;;;;;;;43.00;34.33;;;;;;;;5079970;28;28879;-81
2024/01/20 11:54:52;;;;;;;;;32.33;30.33;;;;;;;;5080548;28;28542;-78
2024/01/20 11:57:21;;;;;;;;;29.00;27.33;;;;;;;;5085653;27;28448;-79
2024/01/20 11:59:46;;;;;;;;;35.33;31.00;;;;;;;;5082727;28;29229;-75
2024/01/20 12:02:11;;;;;;;;;34.00;28.67;;;;;;;;5083113;27;28491;-74
2024/01/20 12:04:37;;;;;;;;;33.33;27.33;;;;;;;;5084168;28;28679;-74
2024/01/20 12:07:02;;;;;;;;;32.00;30.00;;;;;;;;5086733;28;29012;-75
2024/01/20 12:09:27;;;;;;;;;31.67;26.67;;;;;;;;5084030;28;29678;-74
2024/01/20 12:11:52;;;;;;;;;36.67;30.00;;;;;;;;5084122;27;28795;-74
2024/01/20 12:14:18;;;;;;;;;35.67;28.00;;;;;;;;5078503;28;28499;-80
2024/01/20 12:16:43;;;;;;;;;34.67;31.33;;;;;;;;5081859;27;28893;-78
2024/01/20 12:19:09;;;;;;;;;31.00;30.67;;;;;;;;5070229;28;29292;-75
2024/01/20 12:21:34;;;;;;;;;36.00;33.33;;;;;;;;5080380;28;28566;-74
2024/01/20 12:24:00;;;;;;;;;34.00;32.67;;;;;;;;5082848;27;28518;-75
2024/01/20 12:26:25;;;;;;;;;36.67;30.33;;;;;;;;5078641;28;28667;-75
2024/01/20 12:28:52;;;;;;;;;31.00;29.00;;;;;;;;5083012;28;29668;-74
2024/01/20 12:31:17;;;;;;;;;33.67;28.67;;;;;;;;5081791;27;28511;-74
2024/01/20 12:33:43;;;;;;;;;36.33;28.67;;;;;;;;5085049;27;28848;-75
2024/01/20 12:36:08;;;;;;;;;45.67;36.67;;;;;;;;5085754;28;28572;-76
2024/01/20 12:38:33;;;;;;;;;43.25;33.25;;;;;;;;5075920;27;28573;-74
2024/01/20 12:40:59;;;;;;;;;53.50;42.75;;;;;;;;5094463;27;29183;-74
2024/01/20 12:43:24;;;;;;;;;34.33;30.67;;;;;;;;5081289;28;28732;-74
2024/01/20 12:45:49;;;;;;;;;36.00;29.67;;;;;;;;5084833;27;28377;-76
2024/01/20 12:48:14;;;;;;;;;39.33;33.00;;;;;;;;5080073;28;28564;-77
2024/01/20 12:50:39;;;;;;;;;43.00;37.50;;;;;;;;5083468;28;28908;-74
2024/01/20 12:53:05;;;;;;;;;39.33;35.00;;;;;;;;5077529;28;28504;-75
2024/01/20 12:55:30;;;;;;;;;31.33;25.67;;;;;;;;5075565;28;30445;-76
2024/01/20 12:57:56;;;;;;;;;31.67;24.67;;;;;;;;5078765;27;28468;-75
2024/01/20 13:00:29;;;;;;;;;33.00;30.33;;;;;;;;5086108;27;28551;-85
2024/01/20 13:02:55;;;;;;;;;32.33;29.33;;;;;;;;5078742;27;28338;-83
2024/01/20 13:05:21;;;;;;;;;32.00;31.33;;;;;;;;5093236;27;29320;-82
2024/01/20 13:07:50;;;;;;;;;28.33;26.67;;;;;;;;5091116;27;28790;-85
2024/01/20 13:10:18;;;;;;;;;40.75;33.50;;;;;;;;5081546;27;28866;-85
2024/01/20 13:12:46;;;;;;;;;38.33;30.33;;;;;;;;5091216;27;28462;-87
2024/01/20 13:15:29;;;;;;;;;41.67;32.67;;;;;;;;5076409;27;28570;-87
2024/01/20 13:17:55;;;;;;;;;33.00;29.67;;;;;;;;5087310;28;29980;-86
2024/01/20 13:20:20;;;;;;;;;37.67;31.33;;;;;;;;5085787;27;28938;-85
2024/01/20 13:22:46;;;;;;;;;40.67;31.67;;;;;;;;5082061;28;28378;-82
2024/01/20 13:25:12;;;;;;;;;38.75;31.25;;;;;;;;5091717;27;28447;-88
2024/01/20 13:27:37;;;;;;;;;35.67;31.67;;;;;;;;5098161;27;29607;-88
2024/01/20 13:30:04;;;;;;;;;38.00;34.33;;;;;;;;5081033;28;28908;-80
2024/01/20 13:32:29;;;;;;;;;36.75;31.00;;;;;;;;5084676;27;28189;-80
2024/01/20 13:34:54;;;;;;;;;37.67;32.67;;;;;;;;5087070;28;29290;-81
2024/01/20 13:37:19;;;;;;;;;37.00;29.00;;;;;;;;5086453;28;30081;-80
2024/01/20 13:39:45;;;;;;;;;39.75;33.75;;;;;;;;5073942;28;28853;-80
2024/01/20 13:42:13;;;;;;;;;38.75;35.75;;;;;;;;5081839;27;28702;-80
2024/01/20 13:44:39;;;;;;;;;35.50;31.00;;;;;;;;5087238;27;28933;-80
2024/01/20 13:47:07;;;;;;;;;45.00;35.75;;;;;;;;5081637;28;29516;-79
2024/01/20 13:49:32;;;;;;;;;44.00;35.75;;;;;;;;5088075;28;28377;-80
2024/01/20 13:51:58;;;;;;;;;36.75;31.00;;;;;;;;5086710;28;28474;-79
2024/01/20 13:54:24;;;;;;;;;38.00;33.75;;;;;;;;5081841;27;28639;-82
2024/01/20 13:56:49;;;;;;;;;43.00;33.50;;;;;;;;5087070;27;29433;-80
2024/01/20 13:59:14;;;;;;;;;42.50;35.25;;;;;;;;5081779;28;28887;-79
2024/01/20 14:01:41;;;;;;;;;40.75;33.25;;;;;;;;5086246;27;28832;-79
2024/01/20 14:04:06;;;;;;;;;54.50;41.75;;;;;;;;5079114;28;28599;-79
2024/01/20 14:06:32;;;;;;;;;54.75;44.00;;;;;;;;5079741;28;28673;-81
2024/01/20 14:09:01;;;;;;;;;40.25;32.00;;;;;;;;5090526;27;28520;-82
2024/01/20 14:11:27;;;;;;;;;43.75;36.75;;;;;;;;5091119;28;28537;-82